createdAt,value
2023-05-06T00:02:06.369Z,15.20
2023-05-06T00:04:33.668Z,15.20
2023-05-06T00:07:00.405Z,15.20
2023-05-06T00:09:27.251Z,15.20
2023-05-06T00:11:53.925Z,15.20
2023-05-06T00:14:23.787Z,15.10
2023-05-06T00:16:50.614Z,15.10
2023-05-06T00:19:17.370Z,15.00
2023-05-06T00:21:44.109Z,15.00
2023-05-06T00:24:10.805Z,15.00
2023-05-06T00:26:37.523Z,15.00
2023-05-06T00:29:04.318Z,14.90
2023-05-06T00:31:31.093Z,14.80
2023-05-06T00:33:57.866Z,14.90
2023-05-06T00:36:24.585Z,14.80
2023-05-06T00:38:51.279Z,14.80
2023-05-06T00:41:18.073Z,14.80
2023-05-06T00:43:45.102Z,14.80
2023-05-06T00:46:12.484Z,14.80
2023-05-06T00:48:39.774Z,14.80
2023-05-06T00:51:06.487Z,14.80
2023-05-06T00:53:33.237Z,14.80
2023-05-06T00:56:00.090Z,14.80
2023-05-06T00:58:27.095Z,14.90
2023-05-06T01:00:53.837Z,14.90
2023-05-06T01:03:20.711Z,14.90
2023-05-06T01:05:53.128Z,14.90
2023-05-06T01:08:35.983Z,14.90
2023-05-06T01:11:10.420Z,15.00
2023-05-06T01:13:50.507Z,15.00
2023-05-06T01:16:19.484Z,15.00
2023-05-06T01:18:47.386Z,15.10
2023-05-06T01:21:14.115Z,15.10
2023-05-06T01:23:54.780Z,15.10
2023-05-06T01:26:22.276Z,15.20
2023-05-06T01:28:49.093Z,15.10
2023-05-06T01:31:26.909Z,15.10
2023-05-06T01:33:54.222Z,15.10
2023-05-06T01:36:29.260Z,15.20
2023-05-06T01:39:18.387Z,15.10
2023-05-06T01:41:50.635Z,15.20
2023-05-06T01:44:17.731Z,15.20
2023-05-06T01:46:44.886Z,15.10
2023-05-06T01:49:11.667Z,15.10
2023-05-06T01:51:38.926Z,15.10
2023-05-06T01:54:07.424Z,15.00
2023-05-06T01:56:34.440Z,15.00
2023-05-06T01:59:01.246Z,15.00
2023-05-06T02:01:28.429Z,15.00
2023-05-06T02:03:55.820Z,15.10
2023-05-06T02:06:23.285Z,15.10
2023-05-06T02:08:50.007Z,15.00
2023-05-06T02:11:16.752Z,15.00
2023-05-06T02:13:43.976Z,15.00
2023-05-06T02:16:10.791Z,14.90
2023-05-06T02:18:38.029Z,14.90
2023-05-06T02:21:05.128Z,14.80
2023-05-06T02:23:32.558Z,14.80
2023-05-06T02:26:00.069Z,14.80
2023-05-06T02:28:37.386Z,14.80
2023-05-06T02:31:04.620Z,14.80
2023-05-06T02:33:32.557Z,14.80
2023-05-06T02:36:00.194Z,14.70
2023-05-06T02:38:27.113Z,14.70
2023-05-06T02:40:53.929Z,14.70
2023-05-06T02:43:20.821Z,14.60
2023-05-06T02:45:47.498Z,14.60
2023-05-06T02:48:14.201Z,14.50
2023-05-06T02:50:40.938Z,14.50
2023-05-06T02:53:15.093Z,14.40
2023-05-06T02:55:41.901Z,14.40
2023-05-06T02:58:08.707Z,14.40
2023-05-06T03:00:35.456Z,14.40
2023-05-06T03:03:02.406Z,14.40
2023-05-06T03:05:29.236Z,14.30
2023-05-06T03:07:56.318Z,14.30
2023-05-06T03:10:23.024Z,14.20
2023-05-06T03:12:52.261Z,14.20
2023-05-06T03:15:19.274Z,14.20
2023-05-06T03:17:47.621Z,14.20
2023-05-06T03:20:14.387Z,14.20
2023-05-06T03:22:41.124Z,14.10
2023-05-06T03:25:08.506Z,14.10
2023-05-06T03:27:35.616Z,14.10
2023-05-06T03:30:02.832Z,14.10
2023-05-06T03:32:29.848Z,14.10
2023-05-06T03:34:56.686Z,14.10
2023-05-06T03:37:23.429Z,14.10
2023-05-06T03:39:50.172Z,14.10
2023-05-06T03:42:16.783Z,14.20
2023-05-06T03:44:43.674Z,14.20
2023-05-06T03:47:10.529Z,14.20
2023-05-06T03:49:37.398Z,14.20
2023-05-06T03:52:04.586Z,14.20
2023-05-06T03:54:31.409Z,14.20
2023-05-06T03:56:58.185Z,14.20
2023-05-06T03:59:25.301Z,14.20
2023-05-06T04:01:52.043Z,14.20
2023-05-06T04:04:18.773Z,14.20
2023-05-06T04:06:45.576Z,14.20
2023-05-06T04:09:12.393Z,14.30
2023-05-06T04:11:39.103Z,14.30
2023-05-06T04:14:05.858Z,14.20
2023-05-06T04:16:32.595Z,14.20
2023-05-06T04:18:59.390Z,14.30
2023-05-06T04:21:26.382Z,14.20
2023-05-06T04:23:53.228Z,14.20
2023-05-06T04:26:19.955Z,14.30
2023-05-06T04:28:46.971Z,14.20
2023-05-06T04:31:14.282Z,14.20
2023-05-06T04:33:41.460Z,14.20
2023-05-06T04:36:08.984Z,14.30
2023-05-06T04:38:36.108Z,14.30
2023-05-06T04:41:03.119Z,14.20
2023-05-06T04:43:29.838Z,14.20
2023-05-06T04:45:56.651Z,14.20
2023-05-06T04:48:23.591Z,14.30
2023-05-06T04:50:50.915Z,14.20
2023-05-06T04:53:17.778Z,14.20
2023-05-06T04:55:44.559Z,14.20
2023-05-06T04:58:11.387Z,14.30
2023-05-06T05:00:38.188Z,14.30
2023-05-06T05:03:05.551Z,14.30
2023-05-06T05:05:32.732Z,14.30
2023-05-06T05:07:59.461Z,14.30
2023-05-06T05:10:26.264Z,14.30
2023-05-06T05:12:53.177Z,14.40
2023-05-06T05:15:20.254Z,14.40
2023-05-06T05:17:47.314Z,14.40
2023-05-06T05:20:14.184Z,14.40
2023-05-06T05:22:40.988Z,14.50
2023-05-06T05:25:08.563Z,14.50
2023-05-06T05:27:35.625Z,14.60
2023-05-06T05:30:02.365Z,14.60
2023-05-06T05:32:29.143Z,14.70
2023-05-06T05:34:55.883Z,14.70
2023-05-06T05:37:22.571Z,14.80
2023-05-06T05:39:49.325Z,14.80
2023-05-06T05:42:16.603Z,14.90
2023-05-06T05:44:43.302Z,14.90
2023-05-06T05:47:10.374Z,15.00
2023-05-06T05:49:37.051Z,15.10
2023-05-06T05:52:04.126Z,15.10
2023-05-06T05:54:30.917Z,15.20
2023-05-06T05:56:57.837Z,15.20
2023-05-06T05:59:24.892Z,15.20
2023-05-06T06:01:51.810Z,15.20
2023-05-06T06:04:19.150Z,15.30
2023-05-06T06:06:46.116Z,15.30
2023-05-06T06:09:13.396Z,15.30
2023-05-06T06:11:40.167Z,15.40
2023-05-06T06:14:07.142Z,15.40
2023-05-06T06:16:34.709Z,15.50
2023-05-06T06:19:01.725Z,15.50
2023-05-06T06:21:28.429Z,15.60
2023-05-06T06:23:55.234Z,15.70
2023-05-06T06:26:22.793Z,15.80
2023-05-06T06:28:49.559Z,15.80
2023-05-06T06:31:16.372Z,15.90
2023-05-06T06:33:43.106Z,15.90
2023-05-06T06:36:10.052Z,15.90
2023-05-06T06:38:36.816Z,15.90
2023-05-06T06:41:04.644Z,15.90
2023-05-06T06:43:31.362Z,16.00
2023-05-06T06:45:58.179Z,16.00
2023-05-06T06:48:24.915Z,16.00
2023-05-06T06:50:51.629Z,16.00
2023-05-06T06:53:18.347Z,16.00
2023-05-06T06:55:45.721Z,16.00
2023-05-06T06:58:12.425Z,16.10
2023-05-06T07:00:39.118Z,16.10
2023-05-06T07:03:06.009Z,16.20
2023-05-06T07:05:32.788Z,16.20
2023-05-06T07:08:01.736Z,16.30
2023-05-06T07:10:28.606Z,16.40
2023-05-06T07:12:55.411Z,16.40
2023-05-06T07:15:22.213Z,16.60
2023-05-06T07:17:49.027Z,16.60
2023-05-06T07:20:15.801Z,16.70
2023-05-06T07:22:42.612Z,16.80
2023-05-06T07:25:09.802Z,16.90
2023-05-06T07:27:36.649Z,16.90
2023-05-06T07:30:03.673Z,16.90
2023-05-06T07:32:30.412Z,17.00
2023-05-06T07:34:57.120Z,17.00
2023-05-06T07:37:23.866Z,17.10
2023-05-06T07:39:50.546Z,17.10
2023-05-06T07:42:17.231Z,17.10
2023-05-06T07:44:43.958Z,17.20
2023-05-06T07:47:10.766Z,17.30
2023-05-06T07:49:37.547Z,17.40
2023-05-06T07:52:04.567Z,17.40
2023-05-06T07:54:31.264Z,17.50
2023-05-06T07:56:58.030Z,17.50
2023-05-06T07:59:24.721Z,17.50
2023-05-06T08:01:51.440Z,17.50
2023-05-06T08:04:18.195Z,17.50
2023-05-06T08:06:45.019Z,17.50
2023-05-06T08:09:14.754Z,17.50
2023-05-06T08:11:46.669Z,17.50
2023-05-06T08:14:13.396Z,17.60
2023-05-06T08:16:40.408Z,17.60
2023-05-06T08:19:07.160Z,17.60
2023-05-06T08:21:33.872Z,17.60
2023-05-06T08:24:00.982Z,17.60
2023-05-06T08:26:28.174Z,17.60
2023-05-06T08:28:55.068Z,17.70
2023-05-06T08:31:21.778Z,17.70
2023-05-06T08:33:48.478Z,17.60
2023-05-06T08:36:15.207Z,17.50
2023-05-06T08:38:42.051Z,17.40
2023-05-06T08:41:11.600Z,17.50
2023-05-06T08:43:41.536Z,17.50
2023-05-06T08:46:08.500Z,17.50
2023-05-06T08:48:35.263Z,17.60
2023-05-06T08:51:02.536Z,17.70
2023-05-06T08:53:30.042Z,17.80
2023-05-06T08:56:07.531Z,17.80
2023-05-06T08:58:34.776Z,17.70
2023-05-06T09:01:03.298Z,17.70
2023-05-06T09:03:30.201Z,17.60
2023-05-06T09:05:57.964Z,17.60
2023-05-06T09:08:24.702Z,17.60
2023-05-06T09:10:51.512Z,17.70
2023-05-06T09:13:18.975Z,17.80
2023-05-06T09:15:49.078Z,18.00
2023-05-06T09:18:16.968Z,18.10
2023-05-06T09:20:45.522Z,18.20
2023-05-06T09:23:13.464Z,18.20
2023-05-06T09:25:40.548Z,18.20
2023-05-06T09:28:11.182Z,18.20
2023-05-06T09:30:44.906Z,18.10
2023-05-06T09:33:11.939Z,18.00
2023-05-06T09:35:40.021Z,18.00
2023-05-06T09:38:07.429Z,17.90
2023-05-06T09:40:35.676Z,17.80
2023-05-06T09:43:02.861Z,17.80
2023-05-06T09:45:29.610Z,17.70
2023-05-06T09:47:56.440Z,17.60
2023-05-06T09:50:23.556Z,17.60
2023-05-06T09:52:50.818Z,17.60
2023-05-06T09:55:22.325Z,17.50
2023-05-06T09:57:49.872Z,17.60
2023-05-06T10:00:16.998Z,17.50
2023-05-06T10:02:44.783Z,17.50
2023-05-06T10:05:12.257Z,17.50
2023-05-06T10:07:39.783Z,17.40
2023-05-06T10:10:11.036Z,17.40
2023-05-06T10:12:37.807Z,17.30
2023-05-06T10:15:05.440Z,17.20
2023-05-06T10:17:32.525Z,17.10
2023-05-06T10:19:59.839Z,17.10
2023-05-06T10:22:59.953Z,17.00
2023-05-06T10:25:37.322Z,17.10
2023-05-06T10:28:16.625Z,17.10
2023-05-06T10:30:58.131Z,17.10
2023-05-06T10:33:24.872Z,17.10
2023-05-06T10:36:20.325Z,17.10
2023-05-06T10:38:50.803Z,17.20
2023-05-06T10:41:17.568Z,17.10
2023-05-06T10:43:44.411Z,17.20
2023-05-06T10:46:18.548Z,17.10
2023-05-06T10:49:04.172Z,17.10
2023-05-06T10:51:31.693Z,17.10
2023-05-06T10:54:08.534Z,17.10
2023-05-06T10:56:58.794Z,17.20
2023-05-06T10:59:25.899Z,17.20
2023-05-06T11:02:16.607Z,17.30
2023-05-06T11:04:43.749Z,17.30
2023-05-06T11:07:15.202Z,17.40
2023-05-06T11:09:57.545Z,17.50
2023-05-06T11:12:52.504Z,17.50
2023-05-06T11:15:20.167Z,17.60
2023-05-06T11:17:46.938Z,17.70
2023-05-06T11:20:26.811Z,17.80
2023-05-06T11:22:53.892Z,17.90
2023-05-06T11:25:39.840Z,17.90
2023-05-06T11:28:13.590Z,17.90
2023-05-06T11:30:44.753Z,17.90
2023-05-06T11:33:18.102Z,17.70
2023-05-06T11:35:45.012Z,17.70
2023-05-06T11:38:12.237Z,17.70
2023-05-06T11:40:40.927Z,17.80
2023-05-06T11:43:14.292Z,17.90
2023-05-06T11:45:41.741Z,17.90
2023-05-06T11:48:14.188Z,17.90
2023-05-06T11:50:47.729Z,17.90
2023-05-06T11:53:16.437Z,17.80
2023-05-06T11:55:43.726Z,17.80
2023-05-06T11:58:15.620Z,17.70
2023-05-06T12:00:51.242Z,17.50
2023-05-06T12:03:22.093Z,17.50
2023-05-06T12:05:49.438Z,17.40
2023-05-06T12:08:27.569Z,17.30
2023-05-06T12:10:55.895Z,17.30
2023-05-06T12:13:22.700Z,17.30
2023-05-06T12:15:49.423Z,17.20
2023-05-06T12:18:16.243Z,17.20
2023-05-06T12:20:43.052Z,17.20
2023-05-06T12:23:11.866Z,17.20
2023-05-06T12:25:39.674Z,17.30
2023-05-06T12:28:21.748Z,17.30
2023-05-06T12:30:48.645Z,17.40
2023-05-06T12:33:15.404Z,17.50
2023-05-06T12:35:42.095Z,17.80
2023-05-06T12:38:16.061Z,18.10
2023-05-06T12:40:52.447Z,18.40
2023-05-06T12:43:19.243Z,18.60
2023-05-06T12:45:47.291Z,18.90
2023-05-06T12:48:22.795Z,19.10
2023-05-06T12:50:54.036Z,19.20
2023-05-06T12:53:34.229Z,19.30
2023-05-06T12:56:01.032Z,19.40
2023-05-06T12:58:27.912Z,19.40
2023-05-06T13:00:54.803Z,19.40
2023-05-06T13:03:21.755Z,19.20
2023-05-06T13:05:48.579Z,19.00
2023-05-06T13:08:15.300Z,18.90
2023-05-06T13:10:41.993Z,18.70
2023-05-06T13:13:08.781Z,18.50
2023-05-06T13:15:35.578Z,18.40
2023-05-06T13:18:02.399Z,18.20
2023-05-06T13:20:29.185Z,18.00
2023-05-06T13:22:55.898Z,17.90
2023-05-06T13:25:23.113Z,17.90
2023-05-06T13:27:49.854Z,17.80
2023-05-06T13:30:16.563Z,17.70
2023-05-06T13:32:43.364Z,17.70
2023-05-06T13:35:10.661Z,17.70
2023-05-06T13:37:37.573Z,17.90
2023-05-06T13:40:04.777Z,18.00
2023-05-06T13:42:31.509Z,18.10
2023-05-06T13:44:58.222Z,18.10
2023-05-06T13:47:25.028Z,18.00
2023-05-06T13:49:52.124Z,17.90
2023-05-06T13:52:18.977Z,17.90
2023-05-06T13:54:45.666Z,17.80
2023-05-06T13:57:16.970Z,17.70
2023-05-06T13:59:43.679Z,17.70
2023-05-06T14:02:10.914Z,17.70
2023-05-06T14:04:37.914Z,17.60
2023-05-06T14:07:04.651Z,17.60
2023-05-06T14:09:31.434Z,17.50
2023-05-06T14:11:58.158Z,17.40
2023-05-06T14:14:24.907Z,17.30
2023-05-06T14:16:53.011Z,17.20
2023-05-06T14:19:19.789Z,17.10
2023-05-06T14:21:46.688Z,17.00
2023-05-06T14:24:16.418Z,17.00
2023-05-06T14:26:45.780Z,16.90
2023-05-06T14:29:12.517Z,16.80
2023-05-06T14:31:39.312Z,16.80
2023-05-06T14:34:06.123Z,16.70
2023-05-06T14:36:32.838Z,16.70
2023-05-06T14:38:59.823Z,16.70
2023-05-06T14:41:26.540Z,16.70
2023-05-06T14:43:53.184Z,16.70
2023-05-06T14:46:20.141Z,16.60
2023-05-06T14:48:47.133Z,16.50
2023-05-06T14:51:13.840Z,16.60
2023-05-06T14:53:40.572Z,16.50
2023-05-06T14:56:10.501Z,16.50
2023-05-06T14:58:37.417Z,16.50
2023-05-06T15:01:04.187Z,16.40
2023-05-06T15:03:30.933Z,16.40
2023-05-06T15:05:57.723Z,16.30
2023-05-06T15:08:24.556Z,16.40
2023-05-06T15:10:51.369Z,16.40
2023-05-06T15:13:18.158Z,16.40
2023-05-06T15:15:45.291Z,16.50
2023-05-06T15:18:11.963Z,16.50
2023-05-06T15:20:38.733Z,16.60
2023-05-06T15:23:05.467Z,16.60
2023-05-06T15:25:36.041Z,16.60
2023-05-06T15:28:04.165Z,16.60
2023-05-06T15:30:30.950Z,16.60
2023-05-06T15:32:57.724Z,16.60
2023-05-06T15:35:24.498Z,16.60
2023-05-06T15:37:54.724Z,16.60
2023-05-06T15:40:21.669Z,16.60
2023-05-06T15:42:48.386Z,16.70
2023-05-06T15:45:15.185Z,16.70
2023-05-06T15:47:42.029Z,16.70
2023-05-06T15:50:17.838Z,16.80
2023-05-06T15:52:52.071Z,16.80
2023-05-06T15:57:45.832Z,16.70
2023-05-06T16:00:13.272Z,16.60
2023-05-06T16:02:40.623Z,16.60
2023-05-06T16:05:07.790Z,16.60
2023-05-06T16:07:34.668Z,16.60
2023-05-06T16:10:01.435Z,16.70
2023-05-06T16:12:28.152Z,16.70
2023-05-06T16:14:54.917Z,16.70
2023-05-06T16:17:21.623Z,16.60
2023-05-06T16:19:48.381Z,16.60
2023-05-06T16:22:16.095Z,16.60
2023-05-06T16:24:42.873Z,16.60
2023-05-06T16:27:09.584Z,16.50
2023-05-06T16:29:36.691Z,16.50
2023-05-06T16:32:03.463Z,16.40
2023-05-06T16:34:30.190Z,16.40
2023-05-06T16:36:56.963Z,16.30
2023-05-06T16:39:23.678Z,16.30
2023-05-06T16:41:50.438Z,16.30
2023-05-06T16:44:17.195Z,16.30
2023-05-06T16:46:43.952Z,16.30
2023-05-06T16:49:10.732Z,16.30
2023-05-06T16:51:37.496Z,16.20
2023-05-06T16:54:04.347Z,16.20
2023-05-06T16:56:43.820Z,16.20
2023-05-06T16:59:15.132Z,16.20
2023-05-06T17:01:41.841Z,16.20
2023-05-06T17:04:09.050Z,16.20
2023-05-06T17:06:35.791Z,16.20
2023-05-06T17:09:02.573Z,16.10
2023-05-06T17:11:29.292Z,16.10
2023-05-06T17:13:56.076Z,16.10
2023-05-06T17:16:22.807Z,16.00
2023-05-06T17:18:49.495Z,16.10
2023-05-06T17:21:16.260Z,16.10
2023-05-06T17:23:43.258Z,16.00
2023-05-06T17:26:10.607Z,16.10
2023-05-06T17:28:37.748Z,16.10
2023-05-06T17:31:04.751Z,16.10
2023-05-06T17:33:31.594Z,16.00
2023-05-06T17:35:58.393Z,16.10
2023-05-06T17:38:25.127Z,16.10
2023-05-06T17:40:51.865Z,16.10
2023-05-06T17:43:18.686Z,16.10
2023-05-06T17:45:45.384Z,16.00
2023-05-06T17:48:12.093Z,16.00
2023-05-06T17:50:39.210Z,16.00
2023-05-06T17:53:05.915Z,16.00
2023-05-06T17:55:32.665Z,16.00
2023-05-06T17:57:59.451Z,16.00
2023-05-06T18:00:26.373Z,16.00
2023-05-06T18:02:53.339Z,16.00
2023-05-06T18:05:20.149Z,16.00
2023-05-06T18:07:46.906Z,16.00
2023-05-06T18:10:13.686Z,16.00
2023-05-06T18:12:40.434Z,16.00
2023-05-06T18:15:07.907Z,15.90
2023-05-06T18:17:34.736Z,15.90
2023-05-06T18:20:01.609Z,15.90
2023-05-06T18:22:28.486Z,15.90
2023-05-06T18:24:55.545Z,15.90
2023-05-06T18:27:22.575Z,15.90
2023-05-06T18:29:49.407Z,15.90
2023-05-06T18:32:16.119Z,15.90
2023-05-06T18:34:42.904Z,15.90
2023-05-06T18:37:09.616Z,15.90
2023-05-06T18:39:40.493Z,15.90
2023-05-06T18:42:08.253Z,15.90
2023-05-06T18:44:35.938Z,15.80
2023-05-06T18:47:02.720Z,15.80
2023-05-06T18:49:29.461Z,15.80
2023-05-06T18:51:56.194Z,15.80
2023-05-06T18:54:26.226Z,15.80
2023-05-06T18:56:53.291Z,15.80
2023-05-06T18:59:20.426Z,15.70
2023-05-06T19:01:47.253Z,15.80
2023-05-06T19:04:14.027Z,15.70
2023-05-06T19:06:41.240Z,15.70
2023-05-06T19:09:08.055Z,15.70
2023-05-06T19:11:34.772Z,15.70
2023-05-06T19:14:01.551Z,15.70
2023-05-06T19:16:28.378Z,15.70
2023-05-06T19:18:55.283Z,15.70
2023-05-06T19:21:22.047Z,15.70
2023-05-06T19:23:48.728Z,15.70
2023-05-06T19:26:15.474Z,15.70
2023-05-06T19:28:42.186Z,15.70
2023-05-06T19:31:09.668Z,15.60
2023-05-06T19:33:37.339Z,15.60
2023-05-06T19:36:04.695Z,15.60
2023-05-06T19:38:31.579Z,15.60
2023-05-06T19:41:01.688Z,15.60
2023-05-06T19:43:28.475Z,15.60
2023-05-06T19:45:55.442Z,15.60
2023-05-06T19:48:22.262Z,15.60
2023-05-06T19:50:49.121Z,15.60
2023-05-06T19:53:16.316Z,15.60
2023-05-06T19:55:43.067Z,15.60
2023-05-06T19:58:10.776Z,15.60
2023-05-06T20:00:37.592Z,15.60
2023-05-06T20:03:04.354Z,15.60
2023-05-06T20:05:31.125Z,15.60
2023-05-06T20:07:58.433Z,15.60
2023-05-06T20:10:25.635Z,15.60
2023-05-06T20:12:52.533Z,15.60
2023-05-06T20:15:19.424Z,15.70
2023-05-06T20:17:46.356Z,15.60
2023-05-06T20:20:13.345Z,15.70
2023-05-06T20:22:40.757Z,15.70
2023-05-06T20:25:09.003Z,15.70
2023-05-06T20:27:36.056Z,15.70
2023-05-06T20:30:02.937Z,15.70
2023-05-06T20:32:30.774Z,15.70
2023-05-06T20:34:57.467Z,15.70
2023-05-06T20:37:24.391Z,15.70
2023-05-06T20:39:51.153Z,15.70
2023-05-06T20:42:17.893Z,15.70
2023-05-06T20:44:44.681Z,15.70
2023-05-06T20:47:11.399Z,15.70
2023-05-06T20:49:41.572Z,15.70
2023-05-06T20:52:08.397Z,15.70
2023-05-06T20:54:35.091Z,15.70
2023-05-06T20:57:01.796Z,15.60
2023-05-06T20:59:29.151Z,15.60
2023-05-06T21:01:56.394Z,15.60
2023-05-06T21:04:23.283Z,15.60
2023-05-06T21:06:50.311Z,15.60
2023-05-06T21:09:17.960Z,15.60
2023-05-06T21:11:45.071Z,15.50
2023-05-06T21:14:12.340Z,15.50
2023-05-06T21:16:42.111Z,15.50
2023-05-06T21:19:08.782Z,15.50
2023-05-06T21:21:35.553Z,15.50
2023-05-06T21:24:02.285Z,15.40
2023-05-06T21:26:30.510Z,15.40
2023-05-06T21:28:57.199Z,15.40
2023-05-06T21:31:24.284Z,15.30
2023-05-06T21:33:54.964Z,15.30
2023-05-06T21:36:21.690Z,15.40
2023-05-06T21:38:48.759Z,15.30
2023-05-06T21:41:15.563Z,15.30
2023-05-06T21:43:42.529Z,15.30
2023-05-06T21:46:09.318Z,15.40
2023-05-06T21:48:36.053Z,15.40
2023-05-06T21:51:05.796Z,15.40
2023-05-06T21:53:32.477Z,15.40
2023-05-06T21:55:59.338Z,15.40
2023-05-06T21:58:26.039Z,15.40
2023-05-06T22:00:52.743Z,15.40
2023-05-06T22:03:20.079Z,15.50
2023-05-06T22:05:48.800Z,15.50
2023-05-06T22:08:15.510Z,15.50
2023-05-06T22:10:42.206Z,15.50
2023-05-06T22:13:09.044Z,15.50
2023-05-06T22:15:35.729Z,15.40
2023-05-06T22:18:02.493Z,15.50
2023-05-06T22:20:29.388Z,15.50
2023-05-06T22:22:56.367Z,15.50
2023-05-06T22:25:23.175Z,15.50
2023-05-06T22:27:50.042Z,15.50
2023-05-06T22:30:16.784Z,15.50
2023-05-06T22:32:43.501Z,15.40
2023-05-06T22:35:10.413Z,15.50
2023-05-06T22:37:37.199Z,15.50
2023-05-06T22:40:04.239Z,15.50
2023-05-06T22:42:30.930Z,15.50
2023-05-06T22:44:57.634Z,15.50
2023-05-06T22:47:24.626Z,15.50
2023-05-06T22:49:51.405Z,15.50
2023-05-06T22:52:18.659Z,15.50
2023-05-06T22:54:45.534Z,15.60
2023-05-06T22:57:12.252Z,15.50
2023-05-06T22:59:38.959Z,15.60
2023-05-06T23:02:05.694Z,15.50
2023-05-06T23:04:32.454Z,15.50
2023-05-06T23:06:59.147Z,15.50
2023-05-06T23:09:25.888Z,15.60
2023-05-06T23:11:52.569Z,15.50
2023-05-06T23:14:19.263Z,15.50
2023-05-06T23:16:45.957Z,15.50
2023-05-06T23:19:12.745Z,15.50
2023-05-06T23:21:39.426Z,15.40
2023-05-06T23:24:06.251Z,15.40
2023-05-06T23:26:32.929Z,15.40
2023-05-06T23:28:59.638Z,15.40
2023-05-06T23:31:26.439Z,15.40
2023-05-06T23:33:53.259Z,15.40
2023-05-06T23:36:19.954Z,15.40
2023-05-06T23:38:46.816Z,15.40
2023-05-06T23:41:13.589Z,15.50
2023-05-06T23:43:40.360Z,15.50
2023-05-06T23:46:07.092Z,15.40
2023-05-06T23:48:34.062Z,15.40
2023-05-06T23:51:00.736Z,15.50
2023-05-06T23:53:27.590Z,15.50
2023-05-06T23:55:54.277Z,15.50
2023-05-06T23:58:20.980Z,15.50
